sensor_id;sensor_type;location;lat;lon;timestamp;temperature;humidity
45807;DHT22;31507;51.494;7.518;2022-11-27T00:01:57;4.70;99.90
45807;DHT22;31507;51.494;7.518;2022-11-27T00:04:22;4.70;99.90
45807;DHT22;31507;51.494;7.518;2022-11-27T00:06:48;4.70;99.90
45807;DHT22;31507;51.494;7.518;2022-11-27T00:09:14;4.60;99.90
45807;DHT22;31507;51.494;7.518;2022-11-27T00:11:41;4.60;99.90
45807;DHT22;31507;51.494;7.518;2022-11-27T00:14:09;4.70;99.90
45807;DHT22;31507;51.494;7.518;2022-11-27T00:16:36;4.60;99.90
45807;DHT22;31507;51.494;7.518;2022-11-27T00:19:01;4.70;99.90
45807;DHT22;31507;51.494;7.518;2022-11-27T00:21:30;4.60;99.90
45807;DHT22;31507;51.494;7.518;2022-11-27T00:23:58;4.60;99.90
45807;DHT22;31507;51.494;7.518;2022-11-27T00:26:27;4.60;99.90
45807;DHT22;31507;51.494;7.518;2022-11-27T00:28:55;4.60;99.90
45807;DHT22;31507;51.494;7.518;2022-11-27T00:31:27;4.50;99.90
45807;DHT22;31507;51.494;7.518;2022-11-27T00:33:59;4.50;99.90
45807;DHT22;31507;51.494;7.518;2022-11-27T00:36:27;4.40;99.90
45807;DHT22;31507;51.494;7.518;2022-11-27T00:38:53;4.40;99.90
45807;DHT22;31507;51.494;7.518;2022-11-27T00:41:24;4.30;99.90
45807;DHT22;31507;51.494;7.518;2022-11-27T00:43:51;4.40;99.90
45807;DHT22;31507;51.494;7.518;2022-11-27T00:46:21;4.40;99.90
45807;DHT22;31507;51.494;7.518;2022-11-27T00:48:48;4.30;99.90
45807;DHT22;31507;51.494;7.518;2022-11-27T00:51:17;4.30;99.90
45807;DHT22;31507;51.494;7.518;2022-11-27T00:53:43;4.30;99.90
45807;DHT22;31507;51.494;7.518;2022-11-27T00:56:17;4.30;99.90
45807;DHT22;31507;51.494;7.518;2022-11-27T00:58:44;4.30;99.90
45807;DHT22;31507;51.494;7.518;2022-11-27T01:01:18;4.30;99.90
45807;DHT22;31507;51.494;7.518;2022-11-27T01:03:44;4.20;99.90
45807;DHT22;31507;51.494;7.518;2022-11-27T01:06:10;4.20;99.90
45807;DHT22;31507;51.494;7.518;2022-11-27T01:08:36;4.20;99.90
45807;DHT22;31507;51.494;7.518;2022-11-27T01:11:02;4.10;99.90
45807;DHT22;31507;51.494;7.518;2022-11-27T01:13:31;4.00;99.90
45807;DHT22;31507;51.494;7.518;2022-11-27T01:16:05;4.00;99.90
45807;DHT22;31507;51.494;7.518;2022-11-27T01:18:33;4.00;99.90
45807;DHT22;31507;51.494;7.518;2022-11-27T01:20:59;3.90;99.90
45807;DHT22;31507;51.494;7.518;2022-11-27T01:23:24;3.90;99.90
45807;DHT22;31507;51.494;7.518;2022-11-27T01:25:51;4.00;99.90
45807;DHT22;31507;51.494;7.518;2022-11-27T01:28:21;4.00;99.90
45807;DHT22;31507;51.494;7.518;2022-11-27T01:30:47;4.00;99.90
45807;DHT22;31507;51.494;7.518;2022-11-27T01:33:13;4.00;99.90
45807;DHT22;31507;51.494;7.518;2022-11-27T01:35:38;4.00;99.90
45807;DHT22;31507;51.494;7.518;2022-11-27T01:38:04;4.00;99.90
45807;DHT22;31507;51.494;7.518;2022-11-27T01:40:30;4.10;99.90
45807;DHT22;31507;51.494;7.518;2022-11-27T01:42:56;4.00;99.90
45807;DHT22;31507;51.494;7.518;2022-11-27T01:45:22;4.10;99.90
45807;DHT22;31507;51.494;7.518;2022-11-27T01:47:57;4.10;99.90
45807;DHT22;31507;51.494;7.518;2022-11-27T01:50:34;4.10;99.90
45807;DHT22;31507;51.494;7.518;2022-11-27T01:53:04;4.10;99.90
45807;DHT22;31507;51.494;7.518;2022-11-27T01:55:35;4.00;99.90
45807;DHT22;31507;51.494;7.518;2022-11-27T01:58:23;4.10;99.90
45807;DHT22;31507;51.494;7.518;2022-11-27T02:00:49;4.10;99.90
45807;DHT22;31507;51.494;7.518;2022-11-27T02:03:15;4.10;99.90
45807;DHT22;31507;51.494;7.518;2022-11-27T02:05:41;4.00;99.90
45807;DHT22;31507;51.494;7.518;2022-11-27T02:08:09;4.00;99.90
45807;DHT22;31507;51.494;7.518;2022-11-27T02:10:48;4.00;99.90
45807;DHT22;31507;51.494;7.518;2022-11-27T02:13:38;4.00;99.90
45807;DHT22;31507;51.494;7.518;2022-11-27T02:16:30;4.00;99.90
45807;DHT22;31507;51.494;7.518;2022-11-27T02:22:03;4.00;99.90
45807;DHT22;31507;51.494;7.518;2022-11-27T02:24:55;4.00;99.90
45807;DHT22;31507;51.494;7.518;2022-11-27T02:27:42;4.00;99.90
45807;DHT22;31507;51.494;7.518;2022-11-27T02:30:12;4.00;99.90
45807;DHT22;31507;51.494;7.518;2022-11-27T02:32:42;3.90;99.90
45807;DHT22;31507;51.494;7.518;2022-11-27T02:35:21;3.90;99.90
45807;DHT22;31507;51.494;7.518;2022-11-27T02:43:17;3.80;99.90
45807;DHT22;31507;51.494;7.518;2022-11-27T02:45:50;3.80;99.90
45807;DHT22;31507;51.494;7.518;2022-11-27T02:48:20;3.80;99.90
45807;DHT22;31507;51.494;7.518;2022-11-27T02:50:49;3.80;99.90
45807;DHT22;31507;51.494;7.518;2022-11-27T02:53:24;3.80;99.90
45807;DHT22;31507;51.494;7.518;2022-11-27T02:55:51;3.80;99.90
45807;DHT22;31507;51.494;7.518;2022-11-27T02:58:21;3.80;99.90
45807;DHT22;31507;51.494;7.518;2022-11-27T03:00:49;3.70;99.90
45807;DHT22;31507;51.494;7.518;2022-11-27T03:03:19;3.70;99.90
45807;DHT22;31507;51.494;7.518;2022-11-27T03:05:48;3.80;99.90
45807;DHT22;31507;51.494;7.518;2022-11-27T03:08:29;3.80;99.90
45807;DHT22;31507;51.494;7.518;2022-11-27T03:11:09;3.90;99.90
45807;DHT22;31507;51.494;7.518;2022-11-27T03:13:41;3.90;99.90
45807;DHT22;31507;51.494;7.518;2022-11-27T03:21:31;4.00;99.90
45807;DHT22;31507;51.494;7.518;2022-11-27T03:23:58;4.10;99.90
45807;DHT22;31507;51.494;7.518;2022-11-27T03:26:24;4.10;99.90
45807;DHT22;31507;51.494;7.518;2022-11-27T03:28:51;4.10;99.90
45807;DHT22;31507;51.494;7.518;2022-11-27T03:31:19;4.10;99.90
45807;DHT22;31507;51.494;7.518;2022-11-27T03:33:44;4.10;99.90
45807;DHT22;31507;51.494;7.518;2022-11-27T03:36:16;4.10;99.90
45807;DHT22;31507;51.494;7.518;2022-11-27T03:38:43;4.10;99.90
45807;DHT22;31507;51.494;7.518;2022-11-27T03:55:22;4.20;99.90
45807;DHT22;31507;51.494;7.518;2022-11-27T03:57:57;4.20;99.90
45807;DHT22;31507;51.494;7.518;2022-11-27T04:00:24;4.20;99.90
45807;DHT22;31507;51.494;7.518;2022-11-27T04:02:52;4.30;99.90
45807;DHT22;31507;51.494;7.518;2022-11-27T04:05:18;4.30;99.90
45807;DHT22;31507;51.494;7.518;2022-11-27T04:07:44;4.40;99.90
45807;DHT22;31507;51.494;7.518;2022-11-27T04:10:10;4.40;99.90
45807;DHT22;31507;51.494;7.518;2022-11-27T04:12:37;4.40;99.90
45807;DHT22;31507;51.494;7.518;2022-11-27T04:15:03;4.50;99.90
45807;DHT22;31507;51.494;7.518;2022-11-27T04:17:29;4.60;99.90
45807;DHT22;31507;51.494;7.518;2022-11-27T04:19:55;4.60;99.90
45807;DHT22;31507;51.494;7.518;2022-11-27T04:22:20;4.60;99.90
45807;DHT22;31507;51.494;7.518;2022-11-27T04:24:46;4.70;99.90
45807;DHT22;31507;51.494;7.518;2022-11-27T04:27:12;4.80;99.90
45807;DHT22;31507;51.494;7.518;2022-11-27T04:29:37;4.90;99.90
45807;DHT22;31507;51.494;7.518;2022-11-27T04:32:03;5.00;99.90
45807;DHT22;31507;51.494;7.518;2022-11-27T04:34:29;5.00;99.90
45807;DHT22;31507;51.494;7.518;2022-11-27T04:36:55;5.10;99.90
45807;DHT22;31507;51.494;7.518;2022-11-27T04:39:20;5.10;99.90
45807;DHT22;31507;51.494;7.518;2022-11-27T04:41:46;5.10;99.90
45807;DHT22;31507;51.494;7.518;2022-11-27T04:44:12;5.10;99.90
45807;DHT22;31507;51.494;7.518;2022-11-27T04:46:38;5.10;99.90
45807;DHT22;31507;51.494;7.518;2022-11-27T04:49:03;5.10;99.90
45807;DHT22;31507;51.494;7.518;2022-11-27T04:51:30;5.10;99.90
45807;DHT22;31507;51.494;7.518;2022-11-27T04:53:55;5.10;99.90
45807;DHT22;31507;51.494;7.518;2022-11-27T04:56:22;5.10;99.90
45807;DHT22;31507;51.494;7.518;2022-11-27T04:58:47;5.10;99.90
45807;DHT22;31507;51.494;7.518;2022-11-27T05:01:13;5.10;99.90
45807;DHT22;31507;51.494;7.518;2022-11-27T05:03:39;5.10;99.90
45807;DHT22;31507;51.494;7.518;2022-11-27T05:06:05;5.20;99.90
45807;DHT22;31507;51.494;7.518;2022-11-27T05:08:31;5.20;99.90
45807;DHT22;31507;51.494;7.518;2022-11-27T05:11:06;5.20;99.90
45807;DHT22;31507;51.494;7.518;2022-11-27T05:13:32;5.20;99.90
45807;DHT22;31507;51.494;7.518;2022-11-27T05:15:58;5.20;99.90
45807;DHT22;31507;51.494;7.518;2022-11-27T05:18:24;5.20;99.90
45807;DHT22;31507;51.494;7.518;2022-11-27T05:23:22;5.20;99.90
45807;DHT22;31507;51.494;7.518;2022-11-27T05:25:48;5.10;99.90
45807;DHT22;31507;51.494;7.518;2022-11-27T05:28:14;5.20;99.90
45807;DHT22;31507;51.494;7.518;2022-11-27T05:30:39;5.20;99.90
45807;DHT22;31507;51.494;7.518;2022-11-27T05:33:05;5.20;99.90
45807;DHT22;31507;51.494;7.518;2022-11-27T05:35:31;5.30;99.90
45807;DHT22;31507;51.494;7.518;2022-11-27T05:37:56;5.30;99.90
45807;DHT22;31507;51.494;7.518;2022-11-27T05:40:22;5.30;99.90
45807;DHT22;31507;51.494;7.518;2022-11-27T05:42:47;5.40;99.90
45807;DHT22;31507;51.494;7.518;2022-11-27T05:45:13;5.40;99.90
45807;DHT22;31507;51.494;7.518;2022-11-27T05:47:39;5.40;99.90
45807;DHT22;31507;51.494;7.518;2022-11-27T05:50:05;5.50;99.90
45807;DHT22;31507;51.494;7.518;2022-11-27T05:52:31;5.50;99.90
45807;DHT22;31507;51.494;7.518;2022-11-27T05:54:56;5.60;99.90
45807;DHT22;31507;51.494;7.518;2022-11-27T05:57:22;5.60;99.90
45807;DHT22;31507;51.494;7.518;2022-11-27T05:59:48;5.60;99.90
45807;DHT22;31507;51.494;7.518;2022-11-27T06:02:13;5.60;99.90
45807;DHT22;31507;51.494;7.518;2022-11-27T06:04:39;5.60;99.90
45807;DHT22;31507;51.494;7.518;2022-11-27T06:07:05;5.60;99.90
45807;DHT22;31507;51.494;7.518;2022-11-27T06:09:30;5.60;99.90
45807;DHT22;31507;51.494;7.518;2022-11-27T06:11:56;5.60;99.90
45807;DHT22;31507;51.494;7.518;2022-11-27T06:14:22;5.50;99.90
45807;DHT22;31507;51.494;7.518;2022-11-27T06:16:48;5.50;99.90
45807;DHT22;31507;51.494;7.518;2022-11-27T06:19:13;5.60;99.90
45807;DHT22;31507;51.494;7.518;2022-11-27T06:21:39;5.60;99.90
45807;DHT22;31507;51.494;7.518;2022-11-27T06:24:05;5.60;99.90
45807;DHT22;31507;51.494;7.518;2022-11-27T06:26:32;5.60;99.90
45807;DHT22;31507;51.494;7.518;2022-11-27T06:28:59;5.70;99.90
45807;DHT22;31507;51.494;7.518;2022-11-27T06:31:28;5.70;99.90
45807;DHT22;31507;51.494;7.518;2022-11-27T06:33:55;5.70;99.90
45807;DHT22;31507;51.494;7.518;2022-11-27T06:36:22;5.70;99.90
45807;DHT22;31507;51.494;7.518;2022-11-27T06:38:49;5.80;99.90
45807;DHT22;31507;51.494;7.518;2022-11-27T06:41:17;5.80;99.90
45807;DHT22;31507;51.494;7.518;2022-11-27T06:43:43;5.90;99.90
45807;DHT22;31507;51.494;7.518;2022-11-27T06:46:12;6.00;99.90
45807;DHT22;31507;51.494;7.518;2022-11-27T06:48:40;6.00;99.90
45807;DHT22;31507;51.494;7.518;2022-11-27T06:51:09;6.00;99.90
45807;DHT22;31507;51.494;7.518;2022-11-27T06:53:36;6.00;99.90
45807;DHT22;31507;51.494;7.518;2022-11-27T06:56:06;6.00;99.90
45807;DHT22;31507;51.494;7.518;2022-11-27T06:58:39;6.00;99.90
45807;DHT22;31507;51.494;7.518;2022-11-27T07:01:08;6.00;99.90
45807;DHT22;31507;51.494;7.518;2022-11-27T07:03:35;6.10;99.90
45807;DHT22;31507;51.494;7.518;2022-11-27T07:06:05;6.10;99.90
45807;DHT22;31507;51.494;7.518;2022-11-27T07:08:32;6.20;99.90
45807;DHT22;31507;51.494;7.518;2022-11-27T07:11:07;6.20;99.90
45807;DHT22;31507;51.494;7.518;2022-11-27T07:13:33;6.30;99.90
45807;DHT22;31507;51.494;7.518;2022-11-27T07:16:01;6.20;99.90
45807;DHT22;31507;51.494;7.518;2022-11-27T07:18:27;6.20;99.90
45807;DHT22;31507;51.494;7.518;2022-11-27T07:20:53;6.30;99.90
45807;DHT22;31507;51.494;7.518;2022-11-27T07:23:19;6.30;99.90
45807;DHT22;31507;51.494;7.518;2022-11-27T07:25:45;6.30;99.90
45807;DHT22;31507;51.494;7.518;2022-11-27T07:28:11;6.20;99.90
45807;DHT22;31507;51.494;7.518;2022-11-27T07:30:37;6.30;99.90
45807;DHT22;31507;51.494;7.518;2022-11-27T07:33:02;6.30;99.90
45807;DHT22;31507;51.494;7.518;2022-11-27T07:35:28;6.40;99.90
45807;DHT22;31507;51.494;7.518;2022-11-27T07:37:54;6.40;99.90
45807;DHT22;31507;51.494;7.518;2022-11-27T07:40:20;6.50;99.90
45807;DHT22;31507;51.494;7.518;2022-11-27T07:42:45;6.60;99.90
45807;DHT22;31507;51.494;7.518;2022-11-27T07:45:12;6.60;99.90
45807;DHT22;31507;51.494;7.518;2022-11-27T07:47:38;6.60;99.90
45807;DHT22;31507;51.494;7.518;2022-11-27T07:50:04;6.70;99.90
45807;DHT22;31507;51.494;7.518;2022-11-27T07:52:34;6.70;99.90
45807;DHT22;31507;51.494;7.518;2022-11-27T07:55:00;6.80;99.90
45807;DHT22;31507;51.494;7.518;2022-11-27T07:57:27;6.80;99.90
45807;DHT22;31507;51.494;7.518;2022-11-27T07:59:53;6.90;99.90
45807;DHT22;31507;51.494;7.518;2022-11-27T08:02:18;6.90;99.90
45807;DHT22;31507;51.494;7.518;2022-11-27T08:04:44;6.90;99.90
45807;DHT22;31507;51.494;7.518;2022-11-27T08:07:13;6.90;99.90
45807;DHT22;31507;51.494;7.518;2022-11-27T08:09:38;6.90;99.90
45807;DHT22;31507;51.494;7.518;2022-11-27T08:12:05;6.90;99.90
45807;DHT22;31507;51.494;7.518;2022-11-27T08:14:31;6.90;99.90
45807;DHT22;31507;51.494;7.518;2022-11-27T08:16:56;6.90;99.90
45807;DHT22;31507;51.494;7.518;2022-11-27T08:19:22;7.00;99.90
45807;DHT22;31507;51.494;7.518;2022-11-27T08:21:48;7.00;99.90
45807;DHT22;31507;51.494;7.518;2022-11-27T08:24:14;7.00;99.90
45807;DHT22;31507;51.494;7.518;2022-11-27T08:26:39;7.00;99.90
45807;DHT22;31507;51.494;7.518;2022-11-27T08:29:05;7.00;99.90
45807;DHT22;31507;51.494;7.518;2022-11-27T08:31:33;7.10;99.90
45807;DHT22;31507;51.494;7.518;2022-11-27T08:34:01;7.10;99.90
45807;DHT22;31507;51.494;7.518;2022-11-27T08:36:27;7.20;99.90
45807;DHT22;31507;51.494;7.518;2022-11-27T08:38:54;7.20;99.90
45807;DHT22;31507;51.494;7.518;2022-11-27T08:41:20;7.30;99.90
45807;DHT22;31507;51.494;7.518;2022-11-27T08:43:46;7.50;99.90
45807;DHT22;31507;51.494;7.518;2022-11-27T08:46:12;7.60;99.90
45807;DHT22;31507;51.494;7.518;2022-11-27T08:48:38;7.70;99.90
45807;DHT22;31507;51.494;7.518;2022-11-27T08:51:05;7.80;99.90
45807;DHT22;31507;51.494;7.518;2022-11-27T08:53:31;8.00;99.90
45807;DHT22;31507;51.494;7.518;2022-11-27T08:56:05;8.20;99.90
45807;DHT22;31507;51.494;7.518;2022-11-27T08:58:31;8.60;99.90
45807;DHT22;31507;51.494;7.518;2022-11-27T09:00:57;8.70;99.90
45807;DHT22;31507;51.494;7.518;2022-11-27T09:03:22;8.50;99.90
45807;DHT22;31507;51.494;7.518;2022-11-27T09:05:48;8.40;99.90
45807;DHT22;31507;51.494;7.518;2022-11-27T09:08:13;8.30;99.90
45807;DHT22;31507;51.494;7.518;2022-11-27T09:10:44;8.30;99.90
45807;DHT22;31507;51.494;7.518;2022-11-27T09:13:10;8.10;99.90
45807;DHT22;31507;51.494;7.518;2022-11-27T09:15:35;8.10;99.90
45807;DHT22;31507;51.494;7.518;2022-11-27T09:18:01;8.10;99.90
45807;DHT22;31507;51.494;7.518;2022-11-27T09:20:27;8.10;99.90
45807;DHT22;31507;51.494;7.518;2022-11-27T09:22:53;8.20;99.90
45807;DHT22;31507;51.494;7.518;2022-11-27T09:25:18;8.20;99.90
45807;DHT22;31507;51.494;7.518;2022-11-27T09:27:44;8.20;99.90
45807;DHT22;31507;51.494;7.518;2022-11-27T09:30:10;8.20;99.90
45807;DHT22;31507;51.494;7.518;2022-11-27T09:32:36;8.30;99.00
45807;DHT22;31507;51.494;7.518;2022-11-27T09:35:01;8.30;99.50
45807;DHT22;31507;51.494;7.518;2022-11-27T09:37:27;8.30;99.10
45807;DHT22;31507;51.494;7.518;2022-11-27T09:39:53;8.40;98.40
45807;DHT22;31507;51.494;7.518;2022-11-27T09:42:42;8.50;98.40
45807;DHT22;31507;51.494;7.518;2022-11-27T09:45:13;8.50;97.00
45807;DHT22;31507;51.494;7.518;2022-11-27T09:47:54;8.60;96.80
45807;DHT22;31507;51.494;7.518;2022-11-27T09:50:24;8.60;96.80
45807;DHT22;31507;51.494;7.518;2022-11-27T09:55:28;8.70;96.50
45807;DHT22;31507;51.494;7.518;2022-11-27T09:58:15;8.80;96.20
45807;DHT22;31507;51.494;7.518;2022-11-27T10:00:44;8.80;96.40
45807;DHT22;31507;51.494;7.518;2022-11-27T10:03:20;8.80;96.10
45807;DHT22;31507;51.494;7.518;2022-11-27T10:11:29;8.70;96.10
45807;DHT22;31507;51.494;7.518;2022-11-27T10:16:47;8.60;95.70
45807;DHT22;31507;51.494;7.518;2022-11-27T10:22:23;8.70;95.50
45807;DHT22;31507;51.494;7.518;2022-11-27T10:27:39;8.80;95.20
45807;DHT22;31507;51.494;7.518;2022-11-27T10:30:19;8.90;95.10
45807;DHT22;31507;51.494;7.518;2022-11-27T10:32:51;8.90;94.50
45807;DHT22;31507;51.494;7.518;2022-11-27T10:35:21;9.00;94.80
45807;DHT22;31507;51.494;7.518;2022-11-27T10:37:53;9.10;94.70
45807;DHT22;31507;51.494;7.518;2022-11-27T10:40:25;9.10;93.70
45807;DHT22;31507;51.494;7.518;2022-11-27T10:42:57;9.20;94.00
45807;DHT22;31507;51.494;7.518;2022-11-27T10:48:00;9.40;93.40
45807;DHT22;31507;51.494;7.518;2022-11-27T10:50:25;9.40;93.00
45807;DHT22;31507;51.494;7.518;2022-11-27T10:53:00;9.50;92.70
45807;DHT22;31507;51.494;7.518;2022-11-27T10:58:17;9.80;92.80
45807;DHT22;31507;51.494;7.518;2022-11-27T11:00:44;9.80;91.90
45807;DHT22;31507;51.494;7.518;2022-11-27T11:03:16;9.80;91.70
45807;DHT22;31507;51.494;7.518;2022-11-27T11:05:55;9.80;92.30
45807;DHT22;31507;51.494;7.518;2022-11-27T11:08:22;9.80;91.30
45807;DHT22;31507;51.494;7.518;2022-11-27T11:10:57;9.80;92.30
45807;DHT22;31507;51.494;7.518;2022-11-27T11:13:28;9.80;91.40
45807;DHT22;31507;51.494;7.518;2022-11-27T11:15:57;9.80;92.00
45807;DHT22;31507;51.494;7.518;2022-11-27T11:18:30;9.70;91.90
45807;DHT22;31507;51.494;7.518;2022-11-27T11:20:59;9.70;91.80
45807;DHT22;31507;51.494;7.518;2022-11-27T11:23:29;9.70;92.00
45807;DHT22;31507;51.494;7.518;2022-11-27T11:25:58;9.70;92.10
45807;DHT22;31507;51.494;7.518;2022-11-27T11:28:26;9.80;92.00
45807;DHT22;31507;51.494;7.518;2022-11-27T11:31:04;9.80;91.90
45807;DHT22;31507;51.494;7.518;2022-11-27T11:33:39;9.70;91.50
45807;DHT22;31507;51.494;7.518;2022-11-27T11:36:11;9.70;91.90
45807;DHT22;31507;51.494;7.518;2022-11-27T11:38:41;9.70;91.70
45807;DHT22;31507;51.494;7.518;2022-11-27T11:41:08;9.70;91.70
45807;DHT22;31507;51.494;7.518;2022-11-27T11:43:37;9.70;91.80
45807;DHT22;31507;51.494;7.518;2022-11-27T11:46:25;9.70;91.50
45807;DHT22;31507;51.494;7.518;2022-11-27T11:48:54;9.70;91.10
45807;DHT22;31507;51.494;7.518;2022-11-27T11:57:38;9.80;90.40
45807;DHT22;31507;51.494;7.518;2022-11-27T12:00:12;9.90;90.10
45807;DHT22;31507;51.494;7.518;2022-11-27T12:05:56;10.00;89.90
45807;DHT22;31507;51.494;7.518;2022-11-27T12:11:16;10.00;89.50
45807;DHT22;31507;51.494;7.518;2022-11-27T12:16:37;10.10;89.10
45807;DHT22;31507;51.494;7.518;2022-11-27T12:30:23;10.30;88.80
45807;DHT22;31507;51.494;7.518;2022-11-27T12:35:58;10.40;86.80
45807;DHT22;31507;51.494;7.518;2022-11-27T12:38:43;10.40;87.20
45807;DHT22;31507;51.494;7.518;2022-11-27T12:43:46;10.50;88.00
45807;DHT22;31507;51.494;7.518;2022-11-27T12:46:39;10.50;87.60
45807;DHT22;31507;51.494;7.518;2022-11-27T12:49:24;10.50;85.20
45807;DHT22;31507;51.494;7.518;2022-11-27T12:57:47;10.50;86.60
45807;DHT22;31507;51.494;7.518;2022-11-27T13:00:20;10.50;84.00
45807;DHT22;31507;51.494;7.518;2022-11-27T13:03:05;10.40;85.30
45807;DHT22;31507;51.494;7.518;2022-11-27T13:05:57;10.40;85.30
45807;DHT22;31507;51.494;7.518;2022-11-27T13:11:09;10.30;86.30
45807;DHT22;31507;51.494;7.518;2022-11-27T13:13:43;10.30;88.10
45807;DHT22;31507;51.494;7.518;2022-11-27T13:19:00;10.10;86.70
45807;DHT22;31507;51.494;7.518;2022-11-27T13:21:32;10.00;86.60
45807;DHT22;31507;51.494;7.518;2022-11-27T13:24:02;10.00;87.10
45807;DHT22;31507;51.494;7.518;2022-11-27T13:26:37;9.90;87.70
45807;DHT22;31507;51.494;7.518;2022-11-27T13:29:29;9.90;87.10
45807;DHT22;31507;51.494;7.518;2022-11-27T13:31:58;9.90;86.80
45807;DHT22;31507;51.494;7.518;2022-11-27T13:34:44;9.90;87.20
45807;DHT22;31507;51.494;7.518;2022-11-27T13:37:26;9.90;87.70
45807;DHT22;31507;51.494;7.518;2022-11-27T13:42:44;9.90;85.30
45807;DHT22;31507;51.494;7.518;2022-11-27T13:45:21;9.90;85.60
45807;DHT22;31507;51.494;7.518;2022-11-27T13:47:48;9.90;85.00
45807;DHT22;31507;51.494;7.518;2022-11-27T13:50:18;9.90;84.90
45807;DHT22;31507;51.494;7.518;2022-11-27T13:52:54;9.90;84.30
45807;DHT22;31507;51.494;7.518;2022-11-27T13:55:32;9.90;85.00
45807;DHT22;31507;51.494;7.518;2022-11-27T13:58:00;9.90;84.00
45807;DHT22;31507;51.494;7.518;2022-11-27T14:00:32;9.90;84.10
45807;DHT22;31507;51.494;7.518;2022-11-27T14:02:58;9.90;83.40
45807;DHT22;31507;51.494;7.518;2022-11-27T14:05:39;9.90;84.40
45807;DHT22;31507;51.494;7.518;2022-11-27T14:08:29;9.90;84.10
45807;DHT22;31507;51.494;7.518;2022-11-27T14:11:08;9.90;84.10
45807;DHT22;31507;51.494;7.518;2022-11-27T14:13:50;9.80;85.00
45807;DHT22;31507;51.494;7.518;2022-11-27T14:16:29;9.80;84.10
45807;DHT22;31507;51.494;7.518;2022-11-27T14:21:53;9.70;84.90
45807;DHT22;31507;51.494;7.518;2022-11-27T14:24:39;9.70;85.70
45807;DHT22;31507;51.494;7.518;2022-11-27T14:27:22;9.70;85.70
45807;DHT22;31507;51.494;7.518;2022-11-27T14:29:49;9.60;85.50
45807;DHT22;31507;51.494;7.518;2022-11-27T14:32:16;9.60;85.30
45807;DHT22;31507;51.494;7.518;2022-11-27T14:34:43;9.60;85.60
45807;DHT22;31507;51.494;7.518;2022-11-27T14:37:26;9.60;86.10
45807;DHT22;31507;51.494;7.518;2022-11-27T14:39:52;9.50;86.00
45807;DHT22;31507;51.494;7.518;2022-11-27T14:42:23;9.50;86.20
45807;DHT22;31507;51.494;7.518;2022-11-27T14:45:00;9.40;86.20
45807;DHT22;31507;51.494;7.518;2022-11-27T14:47:26;9.40;86.50
45807;DHT22;31507;51.494;7.518;2022-11-27T14:49:53;9.30;86.90
45807;DHT22;31507;51.494;7.518;2022-11-27T14:52:20;9.30;86.90
45807;DHT22;31507;51.494;7.518;2022-11-27T14:54:47;9.30;86.60
45807;DHT22;31507;51.494;7.518;2022-11-27T14:57:18;9.30;86.60
45807;DHT22;31507;51.494;7.518;2022-11-27T14:59:46;9.20;86.90
45807;DHT22;31507;51.494;7.518;2022-11-27T15:04:40;9.20;86.90
45807;DHT22;31507;51.494;7.518;2022-11-27T15:09:44;9.10;86.60
45807;DHT22;31507;51.494;7.518;2022-11-27T15:12:21;9.10;86.70
45807;DHT22;31507;51.494;7.518;2022-11-27T15:15:19;9.10;86.60
45807;DHT22;31507;51.494;7.518;2022-11-27T15:17:48;9.10;87.20
45807;DHT22;31507;51.494;7.518;2022-11-27T15:20:36;9.10;87.40
45807;DHT22;31507;51.494;7.518;2022-11-27T15:23:03;9.00;88.00
45807;DHT22;31507;51.494;7.518;2022-11-27T15:25:37;9.00;88.00
45807;DHT22;31507;51.494;7.518;2022-11-27T15:28:25;9.00;88.20
45807;DHT22;31507;51.494;7.518;2022-11-27T15:30:52;8.90;89.00
45807;DHT22;31507;51.494;7.518;2022-11-27T15:33:32;8.90;88.10
45807;DHT22;31507;51.494;7.518;2022-11-27T15:36:20;8.90;88.80
45807;DHT22;31507;51.494;7.518;2022-11-27T15:38:47;8.80;89.30
45807;DHT22;31507;51.494;7.518;2022-11-27T15:41:19;8.70;89.40
45807;DHT22;31507;51.494;7.518;2022-11-27T15:43:45;8.70;89.90
45807;DHT22;31507;51.494;7.518;2022-11-27T15:46:21;8.60;90.30
45807;DHT22;31507;51.494;7.518;2022-11-27T15:48:48;8.60;90.70
45807;DHT22;31507;51.494;7.518;2022-11-27T15:51:13;8.50;91.00
45807;DHT22;31507;51.494;7.518;2022-11-27T15:53:39;8.40;91.70
45807;DHT22;31507;51.494;7.518;2022-11-27T15:56:05;8.30;91.60
45807;DHT22;31507;51.494;7.518;2022-11-27T15:58:31;8.20;91.90
45807;DHT22;31507;51.494;7.518;2022-11-27T16:00:56;8.20;92.60
45807;DHT22;31507;51.494;7.518;2022-11-27T16:03:22;8.10;92.80
45807;DHT22;31507;51.494;7.518;2022-11-27T16:05:48;8.10;92.70
45807;DHT22;31507;51.494;7.518;2022-11-27T16:08:13;8.10;93.20
45807;DHT22;31507;51.494;7.518;2022-11-27T16:10:40;8.00;93.60
45807;DHT22;31507;51.494;7.518;2022-11-27T16:13:05;8.00;93.80
45807;DHT22;31507;51.494;7.518;2022-11-27T16:15:31;7.90;94.60
45807;DHT22;31507;51.494;7.518;2022-11-27T16:17:57;7.90;94.30
45807;DHT22;31507;51.494;7.518;2022-11-27T16:20:23;7.90;94.10
45807;DHT22;31507;51.494;7.518;2022-11-27T16:22:49;7.90;93.90
45807;DHT22;31507;51.494;7.518;2022-11-27T16:25:15;7.90;94.20
45807;DHT22;31507;51.494;7.518;2022-11-27T16:27:41;7.90;94.60
45807;DHT22;31507;51.494;7.518;2022-11-27T16:30:07;7.80;94.90
45807;DHT22;31507;51.494;7.518;2022-11-27T16:32:39;7.80;95.10
45807;DHT22;31507;51.494;7.518;2022-11-27T16:35:06;7.80;94.80
45807;DHT22;31507;51.494;7.518;2022-11-27T16:37:32;7.80;94.60
45807;DHT22;31507;51.494;7.518;2022-11-27T16:39:58;7.90;94.40
45807;DHT22;31507;51.494;7.518;2022-11-27T16:42:23;7.90;94.50
45807;DHT22;31507;51.494;7.518;2022-11-27T16:44:49;7.90;94.60
45807;DHT22;31507;51.494;7.518;2022-11-27T16:47:14;7.90;94.60
45807;DHT22;31507;51.494;7.518;2022-11-27T16:49:41;7.90;94.70
45807;DHT22;31507;51.494;7.518;2022-11-27T16:52:07;7.90;94.60
45807;DHT22;31507;51.494;7.518;2022-11-27T16:54:34;7.90;94.50
45807;DHT22;31507;51.494;7.518;2022-11-27T16:57:00;7.90;94.40
45807;DHT22;31507;51.494;7.518;2022-11-27T16:59:26;7.90;94.40
45807;DHT22;31507;51.494;7.518;2022-11-27T17:01:52;7.90;94.30
45807;DHT22;31507;51.494;7.518;2022-11-27T17:04:19;8.00;93.90
45807;DHT22;31507;51.494;7.518;2022-11-27T17:06:46;8.00;94.00
45807;DHT22;31507;51.494;7.518;2022-11-27T17:09:12;8.00;94.00
45807;DHT22;31507;51.494;7.518;2022-11-27T17:11:42;7.90;94.40
45807;DHT22;31507;51.494;7.518;2022-11-27T17:14:09;8.00;94.20
45807;DHT22;31507;51.494;7.518;2022-11-27T17:16:36;7.90;94.80
45807;DHT22;31507;51.494;7.518;2022-11-27T17:19:03;7.90;94.60
45807;DHT22;31507;51.494;7.518;2022-11-27T17:21:31;7.80;95.00
45807;DHT22;31507;51.494;7.518;2022-11-27T17:24:02;7.70;95.30
45807;DHT22;31507;51.494;7.518;2022-11-27T17:26:29;7.70;95.40
45807;DHT22;31507;51.494;7.518;2022-11-27T17:28:55;7.60;96.10
45807;DHT22;31507;51.494;7.518;2022-11-27T17:31:31;7.60;95.90
45807;DHT22;31507;51.494;7.518;2022-11-27T17:33:58;7.60;96.60
45807;DHT22;31507;51.494;7.518;2022-11-27T17:36:25;7.50;96.50
45807;DHT22;31507;51.494;7.518;2022-11-27T17:38:51;7.50;96.90
45807;DHT22;31507;51.494;7.518;2022-11-27T17:41:21;7.50;96.30
45807;DHT22;31507;51.494;7.518;2022-11-27T17:43:47;7.50;96.40
45807;DHT22;31507;51.494;7.518;2022-11-27T17:46:16;7.60;96.20